Time;durP1;ratioP1;P1;durP2;ratioP2;P2;SDS_P1;SDS_P2;PMS_P1;PMS_P2;Temp;Humidity;BMP_temperature;BMP_pressure;BME280_temperature;BME280_humidity;BME280_pressure;Samples;Min_cycle;Max_cycle;Signal;HPM_P1;HPM_P2
2023/01/21 00:01:09;;;;;;;15.40;12.80;;;;;;;-3.73;100.00;97283.84;4997504;28;20199;-63
2023/01/21 00:03:37;;;;;;;14.87;13.33;;;;;;;-3.80;100.00;97270.41;4998810;28;20216;-64
2023/01/21 00:06:06;;;;;;;14.67;13.03;;;;;;;-3.72;100.00;97287.25;5017348;28;20203;-63
2023/01/21 00:08:35;;;;;;;21.43;16.23;;;;;;;-3.73;100.00;97280.41;5002895;28;20575;-66
2023/01/21 00:11:06;;;;;;;20.13;16.10;;;;;;;-3.90;100.00;97271.91;5000785;28;20204;-62
2023/01/21 00:13:34;;;;;;;18.87;15.20;;;;;;;-3.81;100.00;97280.84;5016005;28;20200;-65
2023/01/21 00:16:02;;;;;;;16.10;14.43;;;;;;;-3.84;100.00;97279.28;5016573;28;20570;-62
2023/01/21 00:18:30;;;;;;;16.00;14.30;;;;;;;-3.85;100.00;97272.44;4972255;28;20291;-65
2023/01/21 00:20:58;;;;;;;15.40;13.50;;;;;;;-3.84;100.00;97273.25;4963076;28;20223;-63
2023/01/21 00:23:25;;;;;;;16.83;14.00;;;;;;;-3.88;100.00;97276.97;5015275;28;20209;-66
2023/01/21 00:25:58;;;;;;;14.80;13.30;;;;;;;-3.93;100.00;97266.91;5017173;28;20199;-62
2023/01/21 00:28:28;;;;;;;15.63;13.53;;;;;;;-4.02;100.00;97259.66;5022155;28;20377;-64
2023/01/21 00:30:58;;;;;;;15.40;13.80;;;;;;;-3.94;100.00;97268.63;5014289;28;20206;-62
2023/01/21 00:33:26;;;;;;;16.53;13.43;;;;;;;-3.94;100.00;97268.63;5025472;28;20726;-65
2023/01/21 00:35:59;;;;;;;14.77;13.20;;;;;;;-3.92;100.00;97271.16;4983503;28;20207;-63
2023/01/21 00:38:27;;;;;;;14.07;12.63;;;;;;;-3.90;100.00;97264.13;5014976;28;20231;-65
2023/01/21 00:41:01;;;;;;;16.90;13.67;;;;;;;-3.94;100.00;97273.00;5014029;28;20587;-63
2023/01/21 00:43:28;;;;;;;16.47;13.37;;;;;;;-3.96;100.00;97267.09;5016005;28;20203;-66
2023/01/21 00:45:56;;;;;;;17.40;15.63;;;;;;;-4.03;100.00;97268.34;5013989;28;20214;-63
2023/01/21 00:48:24;;;;;;;17.20;14.93;;;;;;;-3.94;100.00;97273.00;5022280;28;20224;-65
2023/01/21 00:50:54;;;;;;;20.67;18.10;;;;;;;-3.97;100.00;97273.19;5015831;28;20636;-62
2023/01/21 00:53:22;;;;;;;18.90;15.23;;;;;;;-3.94;100.00;97273.81;4971011;28;20225;-64
2023/01/21 00:55:50;;;;;;;15.77;14.07;;;;;;;-3.95;100.00;97271.34;5015500;28;20200;-63
2023/01/21 00:58:19;;;;;;;15.60;13.87;;;;;;;-3.87;100.00;97270.84;5018936;28;20317;-66
2023/01/21 01:00:47;;;;;;;14.53;12.93;;;;;;;-3.83;100.00;97280.09;5020514;28;20212;-63
2023/01/21 01:03:15;;;;;;;14.37;12.90;;;;;;;-3.84;100.00;97274.13;5014406;28;20357;-63
2023/01/21 01:05:42;;;;;;;16.07;13.73;;;;;;;-3.84;100.00;97268.94;5021098;28;20242;-63
2023/01/21 01:08:10;;;;;;;16.47;13.77;;;;;;;-3.85;100.00;97274.19;4969182;28;20625;-66
2023/01/21 01:10:37;;;;;;;15.77;13.57;;;;;;;-3.85;100.00;97277.63;5015820;28;20215;-64
2023/01/21 01:13:05;;;;;;;15.17;13.17;;;;;;;-3.87;100.00;97284.66;5015096;28;20493;-65
2023/01/21 01:15:34;;;;;;;14.33;12.83;;;;;;;-3.86;100.00;97283.72;5018041;28;20204;-64
2023/01/21 01:18:02;;;;;;;14.73;13.37;;;;;;;-3.86;100.00;97275.97;5022438;28;20219;-64
2023/01/21 01:20:29;;;;;;;13.43;11.97;;;;;;;-3.86;100.00;97282.88;5019693;28;20200;-63
2023/01/21 01:22:57;;;;;;;14.77;12.53;;;;;;;-3.97;100.00;97281.78;4976564;28;20580;-65
2023/01/21 01:25:25;;;;;;;16.43;12.40;;;;;;;-3.85;100.00;97295.75;5019150;28;20223;-63
2023/01/21 01:27:52;;;;;;;13.73;12.17;;;;;;;-3.84;100.00;97302.59;5023964;28;20307;-65
2023/01/21 01:30:20;;;;;;;13.63;12.23;;;;;;;-3.83;100.00;97293.91;5021060;28;20497;-62
2023/01/21 01:32:49;;;;;;;13.83;10.97;;;;;;;-3.85;100.00;97298.34;5015423;28;20204;-65
2023/01/21 01:35:16;;;;;;;13.53;12.13;;;;;;;-3.95;100.00;97289.47;5022713;28;20450;-63
2023/01/21 01:37:44;;;;;;;11.87;10.73;;;;;;;-3.87;100.00;97307.09;5026072;28;20280;-65
2023/01/21 01:40:12;;;;;;;13.83;11.27;;;;;;;-3.84;100.00;97301.75;4982617;28;20240;-65
2023/01/21 01:42:40;;;;;;;14.87;12.70;;;;;;;-3.85;100.00;97306.09;5024926;28;20440;-65
2023/01/21 01:45:17;;;;;;;13.50;12.20;;;;;;;-3.81;100.00;97304.16;5023505;28;20200;-63
2023/01/21 01:47:47;;;;;;;16.07;11.37;;;;;;;-3.83;100.00;97299.06;5024605;28;20783;-65
2023/01/21 01:50:19;;;;;;;12.23;10.77;;;;;;;-3.84;100.00;97297.41;4997974;28;20204;-63
2023/01/21 01:52:47;;;;;;;13.97;12.50;;;;;;;-3.89;100.00;97296.84;5024167;28;20207;-64
2023/01/21 01:55:15;;;;;;;15.23;12.70;;;;;;;-3.92;100.00;97305.63;4977094;28;20212;-63
2023/01/21 01:57:45;;;;;;;13.70;12.30;;;;;;;-3.97;100.00;97294.72;5018221;28;20604;-65
2023/01/21 02:00:14;;;;;;;16.00;14.37;;;;;;;-3.95;100.00;97297.22;5021202;28;20193;-63
2023/01/21 02:03:43;;;;;;;15.53;13.90;;;;;;;-4.07;100.00;97285.84;5022552;28;20465;-65
2023/01/21 02:05:33;;;;;;;13.50;12.20;;;;;;;-3.96;100.00;97300.75;5024603;28;20394;-66
2023/01/21 02:08:01;;;;;;;15.47;13.47;;;;;;;-4.01;100.00;97289.78;5016110;28;20678;-63
2023/01/21 02:10:30;;;;;;;14.50;13.03;;;;;;;-3.98;100.00;97297.38;4978962;28;20404;-65
2023/01/21 02:12:58;;;;;;;14.33;11.50;;;;;;;-4.00;100.00;97302.66;5026484;28;20223;-62
2023/01/21 02:15:29;;;;;;;13.40;12.03;;;;;;;-4.00;100.00;97297.47;5020102;28;20810;-65
2023/01/21 02:18:03;;;;;;;16.83;12.53;;;;;;;-3.99;100.00;97306.06;5026998;28;20235;-63
2023/01/21 02:20:56;;;;;;;14.03;12.53;;;;;;;-3.97;100.00;97312.84;5024284;28;20226;-66
2023/01/21 02:23:31;;;;;;;13.20;11.17;;;;;;;-3.92;100.00;97317.75;5021105;28;20337;-66
2023/01/21 02:26:31;;;;;;;12.53;11.23;;;;;;;-3.96;100.00;97321.44;4983351;28;20262;-63
2023/01/21 02:29:13;;;;;;;17.00;12.50;;;;;;;-3.96;100.00;97308.50;4987474;28;20373;-65
2023/01/21 02:32:18;;;;;;;13.90;12.50;;;;;;;-3.95;100.00;97310.16;5008863;28;20202;-63
2023/01/21 02:34:50;;;;;;;16.07;12.33;;;;;;;-3.94;100.00;97304.88;5020022;28;20203;-63
2023/01/21 02:37:24;;;;;;;13.13;11.53;;;;;;;-3.93;100.00;97313.50;5003164;28;20679;-65
2023/01/21 02:40:12;;;;;;;17.17;13.10;;;;;;;-3.99;100.00;97317.25;5016903;28;20407;-65
2023/01/21 02:42:43;;;;;;;17.83;14.77;;;;;;;-4.00;100.00;97310.44;4976981;28;20234;-63
2023/01/21 02:45:19;;;;;;;28.47;23.33;;;;;;;-4.05;100.00;97303.84;5021894;28;20571;-65
2023/01/21 02:47:52;;;;;;;19.73;16.07;;;;;;;-4.00;100.00;97307.00;5019964;28;20230;-63
2023/01/21 02:50:23;;;;;;;17.47;13.60;;;;;;;-4.02;100.00;97306.25;5019787;28;20196;-66
2023/01/21 02:52:57;;;;;;;15.27;13.53;;;;;;;-4.07;100.00;97309.13;5000677;28;20230;-64
2023/01/21 02:55:29;;;;;;;15.17;13.57;;;;;;;-4.04;100.00;97313.28;5023826;28;20221;-65
2023/01/21 02:57:59;;;;;;;14.43;12.90;;;;;;;-4.09;100.00;97316.16;4980822;28;20250;-65
2023/01/21 03:00:29;;;;;;;14.10;12.60;;;;;;;-4.08;100.00;97312.63;5023091;28;20228;-63
2023/01/21 03:03:15;;;;;;;13.70;12.37;;;;;;;-4.19;100.00;97299.47;5017906;28;20619;-65
2023/01/21 03:05:56;;;;;;;16.83;12.90;;;;;;;-4.11;100.00;97320.59;5023127;28;20209;-63
2023/01/21 03:08:30;;;;;;;17.93;12.37;;;;;;;-4.11;100.00;97307.63;5002693;28;20234;-66
2023/01/21 03:11:04;;;;;;;15.27;12.83;;;;;;;-4.12;100.00;97304.19;5022286;28;20211;-65
2023/01/21 03:19:11;;;;;;;12.33;11.03;;;;;;;-4.16;100.00;97302.72;5024854;28;20232;-64
2023/01/21 03:21:42;;;;;;;13.03;11.30;;;;;;;-4.16;100.00;97307.91;5021001;28;20516;-63
2023/01/21 03:24:11;;;;;;;15.40;13.43;;;;;;;-4.14;100.00;97290.53;4999805;28;20568;-63
2023/01/21 03:26:42;;;;;;;14.80;12.53;;;;;;;-4.17;100.00;97295.88;5023766;28;20755;-63
2023/01/21 03:29:13;;;;;;;14.20;12.77;;;;;;;-4.14;100.00;97295.69;4969728;28;20238;-65
2023/01/21 03:31:44;;;;;;;14.33;12.83;;;;;;;-4.15;100.00;97293.22;5018814;28;20196;-63
2023/01/21 03:34:13;;;;;;;17.70;12.63;;;;;;;-4.18;100.00;97289.03;5013047;28;20675;-63
2023/01/21 03:36:45;;;;;;;16.93;13.43;;;;;;;-4.17;100.00;97289.84;5024376;28;20211;-66
2023/01/21 03:39:16;;;;;;;15.03;13.10;;;;;;;-4.26;100.00;97279.13;5001630;28;20228;-63
2023/01/21 03:41:43;;;;;;;13.40;12.00;;;;;;;-4.20;100.00;97285.72;5024085;28;20192;-65
2023/01/21 03:44:11;;;;;;;14.40;12.23;;;;;;;-4.17;100.00;97290.69;4977176;28;20214;-63
2023/01/21 03:46:43;;;;;;;13.60;12.27;;;;;;;-4.18;100.00;97290.78;5021338;28;20227;-65
2023/01/21 03:49:15;;;;;;;14.20;11.87;;;;;;;-4.17;100.00;97287.25;5021678;28;20242;-63
2023/01/21 03:51:47;;;;;;;14.03;11.90;;;;;;;-4.10;100.00;97284.25;5019083;28;20210;-66
2023/01/21 03:54:15;;;;;;;15.43;12.77;;;;;;;-4.20;100.00;97285.72;5002594;28;20216;-62
2023/01/21 03:56:43;;;;;;;14.00;12.57;;;;;;;-4.17;100.00;97282.09;5023539;28;20196;-63
2023/01/21 03:59:11;;;;;;;17.10;12.90;;;;;;;-4.12;100.00;97293.03;4991708;28;20235;-63
2023/01/21 04:01:40;;;;;;;18.17;12.77;;;;;;;-4.09;100.00;97285.09;5008438;28;20203;-65
2023/01/21 04:04:09;;;;;;;14.23;11.47;;;;;;;-4.07;100.00;97280.66;5019387;28;20208;-63
2023/01/21 04:06:36;;;;;;;13.17;11.27;;;;;;;-4.02;100.00;97285.53;5022945;28;20196;-63
2023/01/21 04:09:06;;;;;;;16.50;12.60;;;;;;;-4.05;100.00;97280.53;5002049;28;20315;-63
2023/01/21 04:11:34;;;;;;;14.30;11.97;;;;;;;-4.08;100.00;97279.81;5022779;28;20579;-65
2023/01/21 04:14:01;;;;;;;12.77;11.37;;;;;;;-4.10;100.00;97280.84;5022689;28;20199;-63
2023/01/21 04:16:29;;;;;;;13.60;12.20;;;;;;;-4.11;100.00;97284.34;4973560;28;20399;-65
2023/01/21 04:18:57;;;;;;;15.70;11.60;;;;;;;-4.13;100.00;97284.41;5021869;28;20223;-63
2023/01/21 04:21:24;;;;;;;13.33;11.93;;;;;;;-4.10;100.00;97279.06;5016156;28;20409;-64
2023/01/21 04:23:52;;;;;;;13.93;11.70;;;;;;;-4.08;100.00;97290.16;5024109;28;20212;-63
2023/01/21 04:26:21;;;;;;;12.03;10.80;;;;;;;-4.17;100.00;97274.31;4998853;28;20380;-65
2023/01/21 04:28:48;;;;;;;13.90;11.70;;;;;;;-4.14;100.00;97276.75;5022333;28;20231;-65
2023/01/21 04:31:16;;;;;;;12.57;11.13;;;;;;;-4.09;100.00;97280.72;4973098;28;22467;-64
2023/01/21 04:33:44;;;;;;;14.67;11.43;;;;;;;-4.10;100.00;97280.84;5026423;28;20524;-65
2023/01/21 04:36:13;;;;;;;12.63;11.23;;;;;;;-4.11;100.00;97284.34;4949735;28;20623;-65
2023/01/21 04:38:41;;;;;;;15.27;12.17;;;;;;;-4.22;100.00;97269.44;5021785;28;20581;-63
2023/01/21 04:41:08;;;;;;;13.20;11.17;;;;;;;-4.16;100.00;97283.78;5018635;28;20227;-63
2023/01/21 04:43:37;;;;;;;17.83;13.47;;;;;;;-4.23;100.00;97283.31;5004296;28;20207;-63
2023/01/21 04:46:05;;;;;;;16.27;12.40;;;;;;;-4.27;100.00;97279.22;5017617;28;20211;-65
2023/01/21 04:48:33;;;;;;;13.80;12.43;;;;;;;-4.26;100.00;97289.47;5021514;28;20235;-63
2023/01/21 04:51:01;;;;;;;16.27;12.63;;;;;;;-4.31;100.00;97291.50;4950005;28;20244;-64
2023/01/21 04:53:28;;;;;;;17.20;12.47;;;;;;;-4.32;100.00;97284.66;5013120;28;20262;-63
2023/01/21 04:55:56;;;;;;;15.43;13.87;;;;;;;-4.39;100.00;97278.19;5001595;28;20224;-65
2023/01/21 04:58:25;;;;;;;16.00;13.13;;;;;;;-4.30;100.00;97294.94;5003335;28;20231;-63
2023/01/21 05:00:55;;;;;;;16.30;13.40;;;;;;;-4.29;100.00;97304.34;5021463;28;20196;-63
2023/01/21 05:03:23;;;;;;;14.40;12.83;;;;;;;-4.36;100.00;97298.69;5023372;28;20208;-63
2023/01/21 05:05:51;;;;;;;14.63;11.97;;;;;;;-4.34;100.00;97298.63;5021377;28;20610;-66
2023/01/21 05:08:18;;;;;;;15.00;12.80;;;;;;;-4.34;100.00;97299.44;4974532;28;20224;-63
2023/01/21 05:10:46;;;;;;;16.03;13.17;;;;;;;-4.38;100.00;97301.34;5020205;28;20230;-63
2023/01/21 05:13:13;;;;;;;15.43;13.83;;;;;;;-4.43;100.00;97303.38;5008107;28;20473;-65
2023/01/21 05:15:41;;;;;;;16.73;14.83;;;;;;;-4.52;100.00;97306.50;5019205;28;20210;-65
2023/01/21 05:18:10;;;;;;;17.67;13.17;;;;;;;-4.59;100.00;97300.00;5023946;28;20297;-65
2023/01/21 05:20:38;;;;;;;18.00;14.63;;;;;;;-4.60;100.00;97304.31;5009766;28;20203;-63
2023/01/21 05:23:05;;;;;;;21.40;18.67;;;;;;;-4.60;100.00;97314.66;4979166;28;20740;-65
2023/01/21 05:25:33;;;;;;;19.60;17.23;;;;;;;-4.67;100.00;97314.19;5026910;28;20200;-64
2023/01/21 05:28:00;;;;;;;16.67;14.53;;;;;;;-4.69;100.00;97304.84;5027710;28;20892;-65
2023/01/21 05:30:28;;;;;;;16.83;13.57;;;;;;;-4.65;100.00;97309.78;5002079;28;20465;-63
2023/01/21 05:32:56;;;;;;;17.73;13.30;;;;;;;-4.60;100.00;97311.25;5025244;28;20540;-65
2023/01/21 05:35:25;;;;;;;16.00;12.83;;;;;;;-4.57;100.00;97306.72;5022239;28;20227;-65
2023/01/21 05:37:53;;;;;;;15.30;13.70;;;;;;;-4.60;100.00;97288.81;4938925;28;20234;-61
2023/01/21 05:40:21;;;;;;;14.87;13.03;;;;;;;-4.50;100.00;97304.66;5011936;28;20742;-64
2023/01/21 05:42:49;;;;;;;15.50;12.40;;;;;;;-4.42;100.00;97299.03;4994304;28;20271;-62
2023/01/21 05:45:16;;;;;;;19.23;13.17;;;;;;;-4.37;100.00;97300.44;4989350;28;20200;-65
2023/01/21 05:47:44;;;;;;;17.70;13.53;;;;;;;-4.23;100.00;97306.59;5012543;28;20708;-61
2023/01/21 05:50:12;;;;;;;16.92;13.38;;;;;;;-4.22;100.00;97297.91;5010516;28;20722;-63
2023/01/21 05:52:41;;;;;;;15.37;12.70;;;;;;;-4.26;100.00;97299.00;4996698;28;20212;-64
2023/01/21 05:55:09;;;;;;;15.43;12.57;;;;;;;-4.21;100.00;97297.78;4978687;28;20212;-63
2023/01/21 05:57:37;;;;;;;13.07;11.70;;;;;;;-4.17;100.00;97302.78;5007993;28;20332;-66
2023/01/21 06:00:06;;;;;;;17.83;12.27;;;;;;;-4.16;100.00;97304.50;4965304;28;20605;-65
2023/01/21 06:02:33;;;;;;;16.63;12.87;;;;;;;-4.19;100.00;97307.22;5008806;28;20382;-65
2023/01/21 06:05:01;;;;;;;17.77;13.13;;;;;;;-4.18;100.00;97301.13;5008147;28;20342;-66
2023/01/21 06:07:29;;;;;;;18.13;13.93;;;;;;;-4.16;100.00;97307.06;5002887;28;20205;-65
2023/01/21 06:09:58;;;;;;;14.87;12.40;;;;;;;-4.13;100.00;97301.72;4971612;28;20251;-65
2023/01/21 06:12:25;;;;;;;17.73;13.53;;;;;;;-4.08;100.00;97302.28;5011699;28;20262;-64
2023/01/21 06:14:53;;;;;;;16.53;13.77;;;;;;;-4.13;100.00;97289.59;4990952;28;20208;-64
2023/01/21 06:17:21;;;;;;;15.37;12.50;;;;;;;-4.06;100.00;97305.63;5014476;28;20789;-64
2023/01/21 06:19:48;;;;;;;13.80;11.77;;;;;;;-4.04;100.00;97308.09;4986499;28;20814;-66
2023/01/21 06:22:17;;;;;;;17.60;15.13;;;;;;;-4.03;100.00;97300.25;5009664;28;20216;-67
2023/01/21 06:24:45;;;;;;;18.53;14.77;;;;;;;-4.02;100.00;97301.06;4970277;28;20325;-63
2023/01/21 06:27:14;;;;;;;17.10;12.23;;;;;;;-4.00;100.00;97299.22;5010638;28;20326;-63
2023/01/21 06:29:41;;;;;;;13.07;11.23;;;;;;;-3.88;100.00;97301.13;5015028;28;20600;-63
2023/01/21 06:32:09;;;;;;;14.33;11.23;;;;;;;-3.89;100.00;97301.19;4992083;28;20367;-69
2023/01/21 06:34:37;;;;;;;17.77;10.70;;;;;;;-3.93;100.00;97300.56;5013782;28;20294;-64
2023/01/21 06:37:04;;;;;;;12.93;11.50;;;;;;;-3.89;100.00;97301.19;5010147;28;20226;-67
2023/01/21 06:39:32;;;;;;;14.63;11.67;;;;;;;-3.86;100.00;97309.63;4967542;28;20224;-64
2023/01/21 06:41:59;;;;;;;17.07;10.70;;;;;;;-3.86;100.00;97307.03;5020136;28;20196;-64
2023/01/21 06:44:28;;;;;;;12.67;11.33;;;;;;;-3.80;100.00;97311.00;4963711;28;20607;-66
2023/01/21 06:46:56;;;;;;;13.77;10.73;;;;;;;-3.80;100.00;97296.31;5019806;28;20398;-65
2023/01/21 06:49:28;;;;;;;16.10;13.10;;;;;;;-3.73;100.00;97306.28;5016388;28;20216;-63
2023/01/21 06:51:56;;;;;;;12.93;10.87;;;;;;;-3.71;100.00;97302.69;5006620;28;20231;-66
2023/01/21 06:54:23;;;;;;;13.47;12.03;;;;;;;-3.68;100.00;97304.25;4992269;28;20215;-63
2023/01/21 06:56:51;;;;;;;15.67;11.33;;;;;;;-3.69;100.00;97308.63;5010623;28;20493;-66
2023/01/21 06:59:19;;;;;;;16.53;12.07;;;;;;;-3.76;100.00;97303.88;4967916;28;20243;-64
2023/01/21 07:01:48;;;;;;;15.33;11.90;;;;;;;-3.67;100.00;97313.69;5009287;28;20212;-67
2023/01/21 07:04:15;;;;;;;14.03;11.10;;;;;;;-3.65;100.00;97319.59;5015262;28;20585;-63
2023/01/21 07:06:43;;;;;;;13.23;11.03;;;;;;;-3.65;100.00;97323.03;5008156;28;20215;-66
2023/01/21 07:09:11;;;;;;;15.23;11.70;;;;;;;-3.68;100.00;97310.28;5011037;28;20220;-63
2023/01/21 07:11:38;;;;;;;15.20;11.87;;;;;;;-3.56;100.00;97311.31;5009597;28;20326;-65
2023/01/21 07:14:06;;;;;;;15.73;12.30;;;;;;;-3.56;100.00;97313.06;4968588;28;20432;-64
2023/01/21 07:16:34;;;;;;;14.87;12.40;;;;;;;-3.56;100.00;97313.06;4999740;28;20204;-66
2023/01/21 07:19:03;;;;;;;17.67;11.57;;;;;;;-3.56;100.00;97310.47;5013940;28;20476;-66
2023/01/21 07:21:30;;;;;;;16.63;12.83;;;;;;;-3.53;100.00;97310.28;5001555;28;20220;-65
2023/01/21 07:23:59;;;;;;;15.27;11.37;;;;;;;-3.50;100.00;97310.94;5019022;28;20204;-67
2023/01/21 07:26:26;;;;;;;13.37;11.43;;;;;;;-3.50;100.00;97310.94;5009317;28;20292;-64
2023/01/21 07:28:54;;;;;;;13.33;11.67;;;;;;;-3.43;100.00;97315.75;5007911;28;20251;-64
2023/01/21 07:31:22;;;;;;;17.10;12.07;;;;;;;-3.38;100.00;97319.72;4963983;28;20235;-63
2023/01/21 07:33:49;;;;;;;15.13;11.53;;;;;;;-3.36;100.00;97317.03;5018117;28;20204;-65
2023/01/21 07:36:18;;;;;;;14.47;11.43;;;;;;;-3.33;100.00;97316.84;5009881;28;20215;-63
2023/01/21 07:38:46;;;;;;;16.60;12.13;;;;;;;-3.29;100.00;97313.13;5017597;28;20237;-64
2023/01/21 07:41:14;;;;;;;15.47;11.53;;;;;;;-3.23;100.00;97317.94;5016461;28;20672;-63
2023/01/21 07:43:41;;;;;;;14.53;10.83;;;;;;;-3.24;100.00;97321.44;5016756;28;20204;-66
2023/01/21 07:46:09;;;;;;;12.73;10.73;;;;;;;-3.23;100.00;97330.88;4966968;28;20245;-63
2023/01/21 07:48:36;;;;;;;11.43;10.17;;;;;;;-3.23;100.00;97317.94;5014253;28;20248;-63
2023/01/21 07:51:04;;;;;;;12.70;10.60;;;;;;;-3.18;100.00;97327.22;5013337;28;20235;-64
2023/01/21 07:53:33;;;;;;;13.83;11.57;;;;;;;-3.17;100.00;97326.28;5012179;28;20652;-64
2023/01/21 07:56:03;;;;;;;14.50;11.07;;;;;;;-3.21;100.00;97323.88;5017193;28;20208;-65
2023/01/21 07:58:31;;;;;;;12.53;9.90;;;;;;;-3.20;100.00;97328.13;5009050;28;20224;-64
2023/01/21 08:00:58;;;;;;;13.17;10.50;;;;;;;-3.21;100.00;97330.81;5012471;28;20690;-66
2023/01/21 08:03:26;;;;;;;14.17;11.23;;;;;;;-3.14;100.00;97328.69;4956993;28;20211;-66
2023/01/21 08:05:54;;;;;;;14.33;10.87;;;;;;;-3.13;100.00;97333.75;5012467;28;20203;-65
2023/01/21 08:08:21;;;;;;;16.53;12.20;;;;;;;-3.10;100.00;97335.34;5004756;28;20216;-63
2023/01/21 08:10:52;;;;;;;14.60;10.30;;;;;;;-3.05;100.00;97334.09;5014713;28;20224;-65
2023/01/21 08:13:20;;;;;;;13.90;11.17;;;;;;;-3.16;100.00;97321.00;5008244;28;20214;-63
2023/01/21 08:15:49;;;;;;;14.87;11.60;;;;;;;-3.08;100.00;97338.66;5017098;28;20205;-66
2023/01/21 08:18:17;;;;;;;12.17;10.13;;;;;;;-3.05;100.00;97334.09;4963679;28;20243;-63
2023/01/21 08:20:45;;;;;;;12.50;10.33;;;;;;;-2.93;100.00;97331.69;5007940;28;20834;-64
2023/01/21 08:23:13;;;;;;;10.90;9.20;;;;;;;-2.92;100.00;97330.78;5014676;28;20564;-62
2023/01/21 08:25:40;;;;;;;12.83;10.37;;;;;;;-2.89;100.00;97337.50;5008015;28;20497;-66
2023/01/21 08:28:09;;;;;;;13.80;10.90;;;;;;;-2.79;100.00;97341.22;5012452;28;20228;-65
2023/01/21 08:30:37;;;;;;;12.37;10.90;;;;;;;-2.82;100.00;97344.00;5008744;28;20208;-63
2023/01/21 08:33:04;;;;;;;13.57;10.00;;;;;;;-2.83;100.00;97327.59;4963769;28;22783;-65
2023/01/21 08:35:33;;;;;;;11.60;10.40;;;;;;;-2.65;100.00;97348.13;5015184;28;20580;-62
2023/01/21 08:38:01;;;;;;;13.40;10.83;;;;;;;-2.70;100.00;97353.59;5010198;28;20232;-64
2023/01/21 08:40:29;;;;;;;13.30;10.33;;;;;;;-2.74;100.00;97340.91;5017977;28;20314;-63
2023/01/21 08:43:00;;;;;;;13.33;10.33;;;;;;;-2.62;100.00;97359.13;5015393;28;20496;-64
2023/01/21 08:45:29;;;;;;;13.30;10.60;;;;;;;-2.77;100.00;97352.31;5011244;28;20790;-63
2023/01/21 08:47:57;;;;;;;13.23;10.43;;;;;;;-2.66;100.00;97354.22;5016598;28;20228;-65
2023/01/21 08:50:24;;;;;;;11.00;9.83;;;;;;;-2.60;100.00;97363.38;4915090;28;20561;-63
2023/01/21 08:52:52;;;;;;;13.27;10.10;;;;;;;-2.57;100.00;97352.81;5013698;28;20220;-65
2023/01/21 08:55:20;;;;;;;14.50;9.87;;;;;;;-2.52;100.00;97363.72;5014662;28;20583;-62
2023/01/21 08:57:50;;;;;;;13.53;10.13;;;;;;;-2.43;100.00;97370.94;5020757;28;20359;-67
2023/01/21 09:00:19;;;;;;;12.30;10.73;;;;;;;-2.44;100.00;97360.66;5009083;28;20211;-62
2023/01/21 09:02:48;;;;;;;12.90;10.83;;;;;;;-2.42;100.00;97369.19;5021181;28;20610;-65
2023/01/21 09:05:18;;;;;;;14.60;9.90;;;;;;;-2.30;100.00;97372.75;4985480;28;20211;-63
2023/01/21 09:07:46;;;;;;;13.37;11.43;;;;;;;-2.21;100.00;97374.75;5007365;28;20330;-65
2023/01/21 09:10:59;;;;;;;12.00;10.80;;;;;;;-2.30;100.00;97365.78;5013307;28;20211;-63
2023/01/21 09:13:04;;;;;;;14.97;10.43;;;;;;;-2.38;100.00;97368.88;5012357;28;20464;-63
2023/01/21 09:15:37;;;;;;;11.20;9.60;;;;;;;-2.43;100.00;97380.47;5003435;28;20700;-63
2023/01/21 09:18:06;;;;;;;11.60;9.43;;;;;;;-2.40;100.00;97383.72;5018313;28;20233;-64
2023/01/21 09:20:34;;;;;;;12.00;10.40;;;;;;;-2.41;100.00;97383.81;5017918;28;20192;-65
2023/01/21 09:23:22;;;;;;;11.83;10.20;;;;;;;-2.40;100.00;97382.88;4972205;28;20219;-65
2023/01/21 09:25:50;;;;;;;14.53;9.90;;;;;;;-2.22;100.00;97388.66;5013326;28;20537;-65
2023/01/21 09:28:18;;;;;;;13.63;11.23;;;;;;;-2.27;100.00;97394.16;5012046;28;20235;-63
2023/01/21 09:30:46;;;;;;;13.27;10.53;;;;;;;-2.30;100.00;97399.53;5012478;28;20399;-64
2023/01/21 09:33:15;;;;;;;12.60;9.77;;;;;;;-2.33;100.00;97399.72;5012795;28;20220;-63
2023/01/21 09:35:43;;;;;;;12.60;10.70;;;;;;;-2.26;100.00;97398.44;5017568;28;20393;-64
2023/01/21 09:38:11;;;;;;;11.10;9.77;;;;;;;-2.38;100.00;97383.63;4973364;28;20911;-63
2023/01/21 09:40:44;;;;;;;14.27;11.07;;;;;;;-2.28;100.00;97399.44;5012752;28;20214;-65
2023/01/21 09:43:15;;;;;;;10.93;9.80;;;;;;;-2.25;100.00;97397.50;5016075;28;20215;-63
2023/01/21 09:45:43;;;;;;;13.13;10.23;;;;;;;-2.31;100.00;97400.47;5009657;28;20210;-65
2023/01/21 09:48:20;;;;;;;11.70;10.40;;;;;;;-2.36;100.00;97403.38;5015132;28;20774;-63
2023/01/21 09:50:49;;;;;;;13.67;10.50;;;;;;;-2.53;100.00;97395.78;5015627;28;20204;-64
2023/01/21 09:53:25;;;;;;;11.87;10.37;;;;;;;-2.46;100.00;97407.47;4963330;28;20232;-63
2023/01/21 09:55:53;;;;;;;15.00;11.13;;;;;;;-2.51;100.00;97392.19;5007370;28;20215;-66
2023/01/21 09:58:23;;;;;;;12.50;10.67;;;;;;;-2.44;100.00;97403.03;5010355;28;20220;-63
2023/01/21 10:00:53;;;;;;;14.03;11.83;;;;;;;-2.28;100.00;97407.22;5016962;28;20212;-66
2023/01/21 10:03:29;;;;;;;11.80;10.57;;;;;;;-2.30;100.00;97409.09;5012879;28;20296;-63
2023/01/21 10:06:07;;;;;;;13.20;10.83;;;;;;;-2.29;100.00;97402.97;5012902;28;20208;-65
2023/01/21 10:08:43;;;;;;;12.13;10.13;;;;;;;-2.31;100.00;97394.44;4972560;28;20940;-65
2023/01/21 10:11:22;;;;;;;14.23;11.33;;;;;;;-2.22;100.00;97391.25;5014599;28;20728;-62
2023/01/21 10:14:06;;;;;;;14.83;11.47;;;;;;;-2.26;100.00;97394.97;5014279;28;20246;-63
2023/01/21 10:16:39;;;;;;;12.93;10.90;;;;;;;-2.22;100.00;97402.50;5009055;28;20501;-64
2023/01/21 10:19:11;;;;;;;12.57;10.93;;;;;;;-2.22;100.00;97397.28;5014589;28;20557;-62
2023/01/21 10:21:42;;;;;;;11.20;10.00;;;;;;;-2.13;100.00;97392.44;5009962;28;20751;-66
2023/01/21 10:24:13;;;;;;;12.67;9.17;;;;;;;-2.16;100.00;97388.25;4964641;28;20306;-63
2023/01/21 10:26:41;;;;;;;11.20;9.53;;;;;;;-2.25;100.00;97389.72;5017035;28;20235;-65
2023/01/21 10:29:14;;;;;;;11.93;9.73;;;;;;;-2.07;100.00;97386.84;5016659;28;20232;-63
2023/01/21 10:31:44;;;;;;;11.77;10.33;;;;;;;-2.03;100.00;97385.72;5010967;28;20804;-65
2023/01/21 10:34:14;;;;;;;10.73;9.63;;;;;;;-2.09;100.00;97397.31;5015848;28;20203;-65
2023/01/21 10:37:05;;;;;;;10.60;8.87;;;;;;;-1.98;100.00;97382.81;5012511;28;20223;-66
2023/01/21 10:39:44;;;;;;;11.40;9.33;;;;;;;-2.19;100.00;97380.66;4977958;28;20618;-63
2023/01/21 10:42:24;;;;;;;11.40;9.87;;;;;;;-2.11;100.00;97383.59;5017839;28;20251;-63
2023/01/21 10:44:57;;;;;;;11.77;9.50;;;;;;;-2.08;100.00;97391.22;5014144;28;20204;-63
2023/01/21 10:47:32;;;;;;;9.17;8.13;;;;;;;-2.11;100.00;97388.78;5005181;28;20440;-64
2023/01/21 10:50:03;;;;;;;10.93;8.23;;;;;;;-2.03;100.00;97383.09;5015387;28;20291;-66
2023/01/21 10:52:37;;;;;;;9.77;8.77;;;;;;;-2.00;100.00;97384.69;4982043;28;20330;-65
2023/01/21 10:55:16;;;;;;;9.60;8.13;;;;;;;-1.85;100.00;97381.06;4964759;28;20719;-63
2023/01/21 10:57:54;;;;;;;9.23;8.07;;;;;;;-1.82;100.00;97380.88;4991584;28;20251;-64
2023/01/21 11:00:24;;;;;;;10.03;7.97;;;;;;;-1.75;100.00;97379.53;5005609;28;20216;-65
2023/01/21 11:02:54;;;;;;;9.13;8.23;;;;;;;-1.67;100.00;97378.19;5007145;28;20313;-63
2023/01/21 11:05:24;;;;;;;8.17;7.33;;;;;;;-1.76;100.00;97383.06;5014088;28;20193;-64
2023/01/21 11:07:52;;;;;;;8.20;7.40;;;;;;;-1.69;100.00;97378.28;5004662;28;20224;-63
2023/01/21 11:10:22;;;;;;;7.17;6.47;;;;;;;-1.62;100.00;97371.75;5012230;28;20287;-65
2023/01/21 11:12:51;;;;;;;6.83;6.13;;;;;;;-1.76;100.00;97364.88;4958178;28;20324;-63
2023/01/21 11:15:20;;;;;;;7.03;5.77;;;;;;;-1.67;100.00;97367.81;4993219;28;20611;-66
2023/01/21 11:17:49;;;;;;;8.03;7.23;;;;;;;-1.80;100.00;97360.81;5014040;28;20813;-63
2023/01/21 11:20:21;;;;;;;7.90;6.70;;;;;;;-1.80;100.00;97368.59;5005142;28;20192;-66
2023/01/21 11:22:50;;;;;;;6.80;5.97;;;;;;;-1.85;100.00;97359.47;4999642;28;20504;-64
2023/01/21 11:25:25;;;;;;;6.80;6.10;;;;;;;-1.89;100.00;97361.44;5012931;28;20492;-66
2023/01/21 11:27:53;;;;;;;6.63;5.93;;;;;;;-1.83;100.00;97353.22;5010670;28;20227;-65
2023/01/21 11:30:36;;;;;;;7.40;5.97;;;;;;;-1.88;100.00;97352.69;4969630;28;20842;-68